Time,TemperatureF,DewpointF,PressureIn,WindDirection,WindDirectionDegrees,WindSpeedMPH,WindSpeedGustMPH,Humidity,HourlyPrecipIn,Conditions,Clouds,dailyrainin,SoftwareType,DateUTC
2013-08-14 00:11:00,57.0,57.0,30.04,SE,144,3.0,5.0,100,0.00,,,0.00,,2013-08-14 07:11:00,
2013-08-14 00:21:00,57.0,57.0,30.04,ESE,119,3.0,5.0,100,0.00,,,0.00,,2013-08-14 07:21:00,
2013-08-14 00:52:00,58.0,58.0,30.05,SE,134,5.0,6.0,100,0.00,,,0.00,,2013-08-14 07:52:00,
2013-08-14 01:11:00,57.0,57.0,30.05,SSE,154,4.0,6.0,100,0.00,,,0.00,,2013-08-14 08:11:00,
2013-08-14 01:21:00,57.0,57.0,30.04,ESE,120,4.0,6.0,100,0.00,,,0.00,,2013-08-14 08:21:00,
2013-08-14 01:51:00,57.0,57.0,30.04,SSE,154,0.0,3.0,100,0.00,,,0.00,,2013-08-14 08:51:00,
2013-08-14 02:11:00,57.0,57.0,30.04,South,169,2.0,4.0,100,0.00,,,0.00,,2013-08-14 09:11:00,
2013-08-14 02:21:00,56.0,56.0,30.05,South,190,1.0,5.0,100,0.00,,,0.00,,2013-08-14 09:21:00,
2013-08-14 02:52:00,57.0,57.0,30.04,ESE,118,4.0,5.0,100,0.00,,,0.00,,2013-08-14 09:52:00,
2013-08-14 03:11:00,57.0,57.0,30.03,ESE,116,3.0,6.0,100,0.00,,,0.00,,2013-08-14 10:11:00,
2013-08-14 03:22:00,57.0,57.0,30.04,SE,130,4.0,4.0,100,0.00,,,0.00,,2013-08-14 10:22:00,
2013-08-14 03:32:00,57.0,57.0,30.04,SE,130,4.0,4.0,100,0.00,,,0.00,,2013-08-14 10:32:00,
2013-08-14 03:52:00,57.0,57.0,30.04,ESE,115,2.0,3.0,100,0.00,,,0.00,,2013-08-14 10:52:00,
2013-08-14 04:11:00,57.0,57.0,30.03,ESE,103,1.0,2.0,100,0.00,,,0.00,,2013-08-14 11:11:00,
2013-08-14 04:21:00,57.0,57.0,30.03,SE,136,2.0,3.0,100,0.00,,,0.00,,2013-08-14 11:21:00,
2013-08-14 04:51:00,56.0,56.0,30.03,ESE,122,4.0,5.0,100,0.00,,,0.00,,2013-08-14 11:51:00,
2013-08-14 05:11:00,55.0,55.0,30.03,SE,128,4.0,6.0,100,0.00,,,0.00,,2013-08-14 12:11:00,
2013-08-14 05:21:00,56.0,56.0,30.03,ESE,114,4.0,5.0,100,0.00,,,0.00,,2013-08-14 12:21:00,
2013-08-14 05:42:00,55.0,55.0,30.02,East,95,5.0,6.0,100,0.00,,,0.00,,2013-08-14 12:42:00,
2013-08-14 05:52:00,56.0,56.0,30.01,ESE,114,1.0,3.0,100,0.00,,,0.00,,2013-08-14 12:52:00,
2013-08-14 06:11:00,56.0,56.0,30.02,ESE,115,1.0,3.0,100,0.00,,,0.00,,2013-08-14 13:11:00,
2013-08-14 06:21:00,56.0,56.0,30.02,ESE,115,1.0,3.0,100,0.00,,,0.00,,2013-08-14 13:21:00,
2013-08-14 06:52:00,56.0,56.0,30.02,SSE,153,2.0,5.0,100,0.00,,,0.00,,2013-08-14 13:52:00,
2013-08-14 07:11:00,56.0,56.0,30.01,East,92,4.0,5.0,100,0.00,,,0.00,,2013-08-14 14:11:00,
2013-08-14 07:21:00,56.0,56.0,30.01,East,92,4.0,5.0,100,0.00,,,0.00,,2013-08-14 14:21:00,
2013-08-14 07:52:00,56.0,56.0,30.01,SE,140,5.0,9.0,100,0.00,,,0.00,,2013-08-14 14:52:00,
2013-08-14 08:11:00,57.0,57.0,30.01,ESE,106,2.0,5.0,100,0.00,,,0.00,,2013-08-14 15:11:00,
2013-08-14 08:22:00,57.0,57.0,30.01,SE,142,2.0,5.0,100,0.00,,,0.00,,2013-08-14 15:22:00,
2013-08-14 08:56:00,58.0,58.0,30.01,SE,136,4.0,5.0,100,0.00,,,0.00,,2013-08-14 15:56:00,
2013-08-14 09:13:00,60.0,60.0,30.02,SSE,159,3.0,5.0,100,0.00,,,0.00,,2013-08-14 16:13:00,
2013-08-14 09:58:00,63.0,63.0,30.03,SE,140,2.0,4.0,100,0.00,,,0.00,,2013-08-14 16:58:00,
2013-08-14 10:20:00,63.0,63.0,30.03,SE,139,2.0,8.0,100,0.00,,,0.00,,2013-08-14 17:20:00,
2013-08-14 10:28:00,63.0,63.0,30.03,SSW,205,8.0,11.0,100,0.00,,,0.00,,2013-08-14 17:28:00,
2013-08-14 10:55:00,63.0,63.0,30.03,SSE,151,8.0,16.0,100,0.00,,,0.00,,2013-08-14 17:55:00,
2013-08-14 11:54:00,63.0,63.0,30.03,SSW,203,10.0,17.0,100,0.00,,,0.00,,2013-08-14 18:54:00,
2013-08-14 12:12:00,62.0,62.0,30.03,SSE,164,11.0,20.0,100,0.00,,,0.00,,2013-08-14 19:12:00,
2013-08-14 12:23:00,63.0,63.0,30.03,SSE,157,9.0,17.0,100,0.00,,,0.00,,2013-08-14 19:23:00,
2013-08-14 12:53:00,63.0,63.0,30.03,South,189,14.0,19.0,100,0.00,,,0.00,,2013-08-14 19:53:00,
2013-08-14 13:11:00,63.0,63.0,30.03,SSW,213,9.0,19.0,100,0.00,,,0.00,,2013-08-14 20:11:00,
2013-08-14 14:13:00,64.0,64.0,30.03,SSE,147,8.0,14.0,100,0.00,,,0.00,,2013-08-14 21:13:00,
2013-08-14 14:23:00,65.0,65.0,30.03,SSE,154,9.0,17.0,100,0.00,,,0.00,,2013-08-14 21:23:00,
2013-08-14 15:54:00,63.0,63.0,30.03,SSE,158,10.0,16.0,100,0.00,,,0.00,,2013-08-14 22:54:00,
2013-08-14 16:24:00,63.0,63.0,30.03,South,170,9.0,16.0,100,0.00,,,0.00,,2013-08-14 23:24:00,
2013-08-14 16:56:00,64.0,64.0,30.03,SSW,193,8.0,16.0,100,0.00,,,0.00,,2013-08-14 23:56:00,
2013-08-14 17:12:00,63.0,63.0,30.02,SSE,167,8.0,14.0,100,0.00,,,0.00,,2013-08-15 00:12:00,
2013-08-14 17:22:00,63.0,63.0,30.02,SSE,159,6.0,13.0,100,0.00,,,0.00,,2013-08-15 00:22:00,
2013-08-14 17:43:00,64.0,64.0,30.02,South,177,7.0,13.0,100,0.00,,,0.00,,2013-08-15 00:43:00,
2013-08-14 17:52:00,64.0,64.0,30.02,South,179,8.0,13.0,100,0.00,,,0.00,,2013-08-15 00:52:00,
2013-08-14 18:16:00,64.0,64.0,30.02,SSE,163,8.0,15.0,100,0.00,,,0.00,,2013-08-15 01:16:00,
2013-08-14 18:22:00,64.0,64.0,30.02,SSE,164,8.0,14.0,100,0.00,,,0.00,,2013-08-15 01:22:00,
2013-08-14 18:52:00,63.0,63.0,30.02,South,181,6.0,13.0,100,0.00,,,0.00,,2013-08-15 01:52:00,
2013-08-14 19:11:00,63.0,63.0,30.02,SSW,199,7.0,13.0,100,0.00,,,0.00,,2013-08-15 02:11:00,
2013-08-14 19:21:00,63.0,63.0,30.01,South,172,7.0,15.0,100,0.01,,,0.01,,2013-08-15 02:21:00,
2013-08-14 20:22:00,64.0,64.0,30.01,SSE,148,5.0,9.0,100,0.02,,,0.03,,2013-08-15 03:22:00,
2013-08-14 20:53:00,64.0,64.0,30.01,SSE,149,4.0,7.0,100,0.04,,,0.06,,2013-08-15 03:53:00,
2013-08-14 21:12:00,64.0,64.0,30.01,South,175,4.0,6.0,100,0.04,,,0.06,,2013-08-15 04:12:00,
2013-08-14 21:22:00,63.0,63.0,30.01,South,178,4.0,11.0,100,0.03,,,0.06,,2013-08-15 04:22:00,
2013-08-14 21:52:00,63.0,63.0,30.01,SSE,165,7.0,12.0,100,0.02,,,0.08,,2013-08-15 04:52:00,
2013-08-14 22:12:00,63.0,63.0,30.01,South,169,9.0,15.0,100,0.03,,,0.09,,2013-08-15 05:12:00,
2013-08-14 22:22:00,63.0,63.0,30.01,South,175,6.0,14.0,100,0.03,,,0.09,,2013-08-15 05:22:00,
2013-08-14 22:52:00,64.0,64.0,30.02,SSE,159,9.0,12.0,100,0.02,,,0.10,,2013-08-15 05:52:00,
2013-08-14 23:21:00,64.0,64.0,30.02,South,169,6.0,15.0,100,0.01,,,0.10,,2013-08-15 06:21:00,
2013-08-14 23:31:00,64.0,64.0,30.02,South,169,6.0,15.0,100,0.01,,,0.10,,2013-08-15 06:31:00,
2013-08-14 23:42:00,64.0,64.0,30.02,South,169,6.0,15.0,100,0.01,,,0.10,,2013-08-15 06:42:00,
2013-08-14 23:51:00,63.0,63.0,30.02,South,184,10.0,18.0,100,0.01,,,0.11,,2013-08-15 06:51:00,